Flight Track Log - Related Links

Times and Time Zones

All times are in EDT time to prevent confusion due to time zone crossing. See the PDT4373 flight status page for this flight to view local times or setup timezone preferences in your user account.

Time Position Orientation Groundspeed Altitude Reporting Facility
EDT Latitude Longitude Course Direction KTS MPH feet Rate Location/Type
Sun 09:28:41 AM 39.9000 -75.2500 311° West 148 170 900  Level Philadelphia TRACON
Sun 09:29:29 AM 39.9167 -75.2833 303° West 129 148 2,200 1,667 Climbing Philadelphia TRACON
Sun 09:30:29 AM 39.9333 -75.3167 303° West 140 161 3,900 1,600 Climbing Philadelphia TRACON
Sun 09:31:00 AM 40.0527 -75.4027 323° Northwest  Level FlightAware Approximate
Sun 09:31:29 AM 39.9500 -75.3667 294° West 142 163 5,400  Level Philadelphia TRACON
Sun 09:32:00 AM 40.1130 -75.4594 303° West  Level FlightAware Approximate
Sun 09:32:21 AM 39.9558 -75.4017 282° West 137 158 6,400  Level New York Center
Sun 09:33:00 AM 40.1745 -75.5117 311° West  Level FlightAware Approximate
Sun 09:33:22 AM 39.9644 -75.4508 283° West 137 158 7,800  Level New York Center
Sun 09:34:00 AM 40.2309 -75.5713 311° West  Level FlightAware Approximate
Sun 09:34:21 AM 40.0008 -75.4806 328° Northwest 187 215 8,900  Level New York Center
Sun 09:35:22 AM 40.0583 -75.4981 347° North 242 278 8,900  Level New York Center
Sun 09:36:21 AM 40.1200 -75.5239 342° North 240 276 8,900 50 Level New York Center
Sun 09:37:21 AM 40.1853 -75.5556 340° North 292 336 9,000 496 Climbing New York Center
Sun 09:38:22 AM 40.2464 -75.5897 337° Northwest 250 288 9,900 800 Climbing New York Center
Sun 09:39:21 AM 40.2733 -75.6458 302° West 204 235 10,600 800 Climbing New York Center
Sun 09:40:22 AM 40.3125 -75.7058 311° West 199 229 11,500 706 Climbing New York Center
Sun 09:41:20 AM 40.3456 -75.7628 307° West 199 229 12,000 252 Climbing New York Center
Sun 09:42:21 AM 40.3844 -75.8256 309° West 205 236 12,000  Level New York Center
Sun 09:43:20 AM 40.4219 -75.8800 312° West 217 250 12,000  Level New York Center
Sun 09:44:21 AM 40.4867 -75.9231 333° Northwest 222 255 12,000  Level New York Center
Sun 09:45:21 AM 40.5481 -75.9467 344° North 238 274 12,000  Level New York Center
Sun 09:46:23 AM 40.6139 -75.9708 344° North 238 274 12,000  Level New York Center
Sun 09:47:20 AM 40.6775 -75.9922 346° North 238 274 12,000  Level New York Center
Sun 09:48:21 AM 40.7386 -76.0242 338° Northwest 238 274 12,000  Level New York Center
Sun 09:49:20 AM 40.7997 -76.0508 342° North 245 282 12,000  Level New York Center
Sun 09:50:20 AM 40.8636 -76.0722 346° North 245 282 12,000  Level New York Center
Sun 09:51:20 AM 40.9331 -76.0994 344° North 238 274 12,000  Level New York Center
Sun 09:52:21 AM 40.9928 -76.1153 349° North 238 274 12,000  Level New York Center
Sun 09:53:22 AM 41.0644 -76.1456 342° North 238 274 12,000  Level New York Center
Sun 09:54:22 AM 41.1300 -76.1703 344° North 238 274 12,000  Level New York Center
Sun 09:55:21 AM 41.1978 -76.1894 348° North 238 274 12,000  Level New York Center
Sun 09:56:22 AM 41.2617 -76.2056 349° North 238 274 12,000  Level New York Center
Sun 09:57:20 AM 41.3267 -76.1969 North 238 274 12,000  Level New York Center
Sun 09:58:20 AM 41.4039 -76.1947 North 243 280 12,000  Level New York Center
Sun 09:59:21 AM 41.4728 -76.1922 North 249 287 12,000  Level New York Center
Sun 10:00:21 AM 41.5436 -76.1894 North 254 292 12,000 -246 Level New York Center
Sun 10:01:23 AM 41.6081 -76.1892 360° North 254 292 11,500 -800 Descending New York Center
Sun 10:02:21 AM 41.6836 -76.1786 North 260 299 10,400 -1,322 Descending New York Center
Sun 10:03:21 AM 41.7694 -76.1661 North 275 316 8,900 -1,450 Descending New York Center
Sun 10:04:21 AM 41.8469 -76.1586 North 280 322 7,500 -1,350 Descending New York Center
Sun 10:05:21 AM 41.9217 -76.1200 21° North 279 321 6,200 -1,339 Descending New York Center
Sun 10:06:22 AM 41.9894 -76.0892 19° North 284 327 4,800 -1,100 Descending New York Center
Sun 10:07:21 AM 42.0706 -76.0483 20° North 284 327 4,000 -700 Descending New York Center
Sun 10:08:22 AM 42.1328 -76.0028 28° Northeast 262 302 3,400 -645 Descending New York Center
Sun 10:09:22 AM 42.1503 -75.9400 69° East 202 232 2,700 -655 Descending New York Center
Sun 10:10:21 AM 42.1808 -75.9536 342° North 146 168 2,100 -610 Descending New York Center

Login

Don't have an account? Register now (free) for customized features, flight alerts, and more!